Time;durP1;ratioP1;P1;durP2;ratioP2;P2;SDS_P1;SDS_P2;PMS_P1;PMS_P2;Temp;Humidity;BMP_temperature;BMP_pressure;BME280_temperature;BME280_humidity;BME280_pressure;Samples;Min_cycle;Max_cycle;Signal;HPM_P1;HPM_P2
2021/09/05 00:01:34;;;;;;;8.23;6.23;;;25.30;48.90;;;;;;5002298;28;20202;-46
2021/09/05 00:04:03;;;;;;;7.73;7.00;;;25.20;49.00;;;;;;5001055;28;20277;-48
2021/09/05 00:06:29;;;;;;;7.40;6.70;;;25.00;49.50;;;;;;5009381;28;20205;-48
2021/09/05 00:08:55;;;;;;;7.43;6.60;;;24.80;49.60;;;;;;5003960;28;20488;-51
2021/09/05 00:11:21;;;;;;;7.60;6.90;;;24.80;50.50;;;;;;5001830;28;20449;-50
2021/09/05 00:13:46;;;;;;;11.33;8.50;;;24.80;49.90;;;;;;5003696;28;20208;-46
2021/09/05 00:16:12;;;;;;;12.90;6.63;;;24.80;49.80;;;;;;5005869;28;20245;-49
2021/09/05 00:18:37;;;;;;;9.40;8.40;;;24.80;49.70;;;;;;5006930;28;20248;-47
2021/09/05 00:21:03;;;;;;;6.90;6.20;;;24.80;49.90;;;;;;5011194;28;20200;-49
2021/09/05 00:23:28;;;;;;;7.33;6.60;;;24.90;49.60;;;;;;5009159;28;20305;-48
2021/09/05 00:25:54;;;;;;;7.43;6.53;;;24.90;49.50;;;;;;5012039;28;20198;-46
2021/09/05 00:28:20;;;;;;;7.40;6.70;;;24.90;49.60;;;;;;5007939;28;20260;-46
2021/09/05 00:30:45;;;;;;;7.30;6.70;;;24.90;49.50;;;;;;5008610;28;20709;-45
2021/09/05 00:33:11;;;;;;;7.10;6.50;;;24.80;49.40;;;;;;5009464;28;20194;-47
2021/09/05 00:35:36;;;;;;;6.40;5.80;;;24.80;49.80;;;;;;5011954;28;20190;-46
2021/09/05 00:38:02;;;;;;;7.03;6.33;;;24.80;49.90;;;;;;5005665;28;20194;-46
2021/09/05 00:40:28;;;;;;;7.70;6.90;;;24.80;49.90;;;;;;5008555;28;20256;-45
2021/09/05 00:42:54;;;;;;;7.93;6.37;;;24.80;49.90;;;;;;5007531;28;20437;-47
2021/09/05 00:45:19;;;;;;;8.47;6.90;;;24.80;49.70;;;;;;5010080;28;20271;-45
2021/09/05 00:47:45;;;;;;;9.10;7.50;;;24.80;49.70;;;;;;5008029;28;20226;-45
2021/09/05 00:50:12;;;;;;;7.20;6.43;;;24.80;49.50;;;;;;5005685;28;22368;-45
2021/09/05 00:52:39;;;;;;;7.60;6.90;;;24.80;49.50;;;;;;5008787;28;20273;-46
2021/09/05 00:55:05;;;;;;;7.70;6.30;;;24.80;49.60;;;;;;5010370;28;20448;-46
2021/09/05 00:57:31;;;;;;;6.20;5.70;;;24.70;49.40;;;;;;5006635;28;20449;-45
2021/09/05 00:59:57;;;;;;;7.03;6.43;;;24.70;49.90;;;;;;5005562;28;20863;-46
2021/09/05 01:02:23;;;;;;;7.77;7.07;;;24.70;49.50;;;;;;5007723;28;20440;-45
2021/09/05 01:04:48;;;;;;;7.13;6.43;;;24.60;49.50;;;;;;5005615;28;20293;-45
2021/09/05 01:07:14;;;;;;;7.90;5.93;;;24.60;49.70;;;;;;5005467;28;22083;-45
2021/09/05 01:09:40;;;;;;;8.43;6.87;;;24.70;49.80;;;;;;5012961;28;20243;-50
2021/09/05 01:12:06;;;;;;;7.93;6.50;;;24.60;49.60;;;;;;5011366;28;20908;-48
2021/09/05 01:14:33;;;;;;;7.00;6.30;;;24.60;49.80;;;;;;5010680;28;20225;-48
2021/09/05 01:16:58;;;;;;;6.60;6.00;;;24.60;49.70;;;;;;5008094;28;20442;-49
2021/09/05 01:19:24;;;;;;;7.30;6.70;;;24.60;49.80;;;;;;5003261;28;20449;-50
2021/09/05 01:21:51;;;;;;;7.37;6.67;;;24.60;49.70;;;;;;5011242;28;20198;-52
2021/09/05 01:24:19;;;;;;;6.30;5.80;;;24.60;49.70;;;;;;5009156;28;20591;-48
2021/09/05 01:26:46;;;;;;;8.90;7.23;;;24.60;49.90;;;;;;5003950;28;20457;-49
2021/09/05 01:29:13;;;;;;;6.93;6.23;;;24.70;49.70;;;;;;5008617;28;20492;-48
2021/09/05 01:31:49;;;;;;;7.27;6.57;;;24.50;49.80;;;;;;5008624;28;20448;-48
2021/09/05 01:34:17;;;;;;;8.00;7.07;;;24.50;49.90;;;;;;5003559;28;20467;-47
2021/09/05 01:36:43;;;;;;;7.20;6.50;;;24.30;49.40;;;;;;5008602;28;20812;-51
2021/09/05 01:39:11;;;;;;;7.63;6.93;;;24.20;50.10;;;;;;5005133;28;20440;-51
2021/09/05 01:41:37;;;;;;;6.90;6.00;;;24.20;51.00;;;;;;5005717;28;20456;-47
2021/09/05 01:44:05;;;;;;;6.97;6.23;;;24.20;50.20;;;;;;5009331;28;20452;-50
2021/09/05 01:46:31;;;;;;;6.90;6.30;;;24.30;50.30;;;;;;5004332;28;20226;-47
2021/09/05 01:48:57;;;;;;;7.90;7.10;;;24.30;49.90;;;;;;5007373;28;20537;-47
2021/09/05 01:51:23;;;;;;;8.47;6.50;;;24.40;49.80;;;;;;5004376;28;20967;-46
2021/09/05 01:53:49;;;;;;;6.73;6.13;;;24.30;49.70;;;;;;5006292;28;20448;-47
2021/09/05 01:56:14;;;;;;;8.33;6.30;;;24.10;49.80;;;;;;5008092;28;20205;-46
2021/09/05 01:58:40;;;;;;;8.40;7.40;;;24.00;50.60;;;;;;4998054;28;20641;-47
2021/09/05 02:01:06;;;;;;;6.77;6.07;;;24.00;50.60;;;;;;5001463;28;20194;-46
2021/09/05 02:03:31;;;;;;;7.43;6.80;;;24.00;50.60;;;;;;5003885;28;20277;-45
2021/09/05 02:05:57;;;;;;;7.17;6.43;;;24.10;50.50;;;;;;5004416;28;20202;-46
2021/09/05 02:08:23;;;;;;;7.33;6.63;;;24.10;50.30;;;;;;5001463;28;20630;-48
2021/09/05 02:10:48;;;;;;;8.37;6.70;;;24.10;50.20;;;;;;5006383;28;20194;-50
2021/09/05 02:13:15;;;;;;;6.97;6.37;;;24.20;50.10;;;;;;5007503;28;20541;-50
2021/09/05 02:15:40;;;;;;;7.50;6.80;;;24.30;50.00;;;;;;4997156;28;20194;-48
2021/09/05 02:18:06;;;;;;;7.17;6.23;;;24.30;49.80;;;;;;5008207;28;20920;-47
2021/09/05 02:20:32;;;;;;;8.57;7.67;;;24.30;49.80;;;;;;4999935;28;20198;-50
2021/09/05 02:22:58;;;;;;;7.23;6.60;;;24.30;49.70;;;;;;5003907;28;20289;-50
2021/09/05 02:25:23;;;;;;;6.77;6.17;;;24.30;49.70;;;;;;5009350;28;20520;-50
2021/09/05 02:27:49;;;;;;;7.00;6.40;;;24.00;49.80;;;;;;5008129;28;20267;-50
2021/09/05 02:30:15;;;;;;;7.07;6.37;;;23.90;50.70;;;;;;5004612;28;20194;-47
2021/09/05 02:32:41;;;;;;;7.33;6.73;;;23.90;50.20;;;;;;5005249;28;20243;-44
2021/09/05 02:35:08;;;;;;;6.73;6.03;;;24.00;50.40;;;;;;5009147;28;20247;-47
2021/09/05 02:37:37;;;;;;;7.03;6.33;;;24.00;50.10;;;;;;5007643;28;20202;-49
2021/09/05 02:40:06;;;;;;;7.80;7.10;;;24.00;50.30;;;;;;5009505;28;20476;-44
2021/09/05 02:42:33;;;;;;;6.10;5.60;;;24.00;50.10;;;;;;5005123;28;20449;-44
2021/09/05 02:45:03;;;;;;;6.70;6.10;;;24.00;50.00;;;;;;5005309;28;20453;-44
2021/09/05 02:47:29;;;;;;;6.20;5.60;;;24.00;50.10;;;;;;5005772;28;20494;-44
2021/09/05 02:49:55;;;;;;;6.57;5.70;;;24.00;50.00;;;;;;5008773;28;20787;-44
2021/09/05 02:52:21;;;;;;;7.83;7.23;;;24.00;50.00;;;;;;5004137;28;20252;-44
2021/09/05 02:54:47;;;;;;;7.10;6.43;;;24.00;50.00;;;;;;5008632;28;20441;-44
2021/09/05 02:57:12;;;;;;;6.67;6.07;;;24.00;49.80;;;;;;5009095;28;20201;-44
2021/09/05 02:59:38;;;;;;;10.87;5.70;;;24.00;49.80;;;;;;5009562;28;20230;-45
2021/09/05 03:02:04;;;;;;;7.63;6.83;;;24.00;49.90;;;;;;5003818;28;20205;-47
2021/09/05 03:04:29;;;;;;;7.17;6.23;;;24.10;49.60;;;;;;5003905;28;20200;-44
2021/09/05 03:06:55;;;;;;;8.10;7.40;;;24.00;49.50;;;;;;5005625;28;20194;-45
2021/09/05 03:09:21;;;;;;;6.37;5.87;;;24.00;49.60;;;;;;4996655;28;20826;-45
2021/09/05 03:11:47;;;;;;;6.40;5.80;;;23.90;49.70;;;;;;5002578;28;20445;-47
2021/09/05 03:14:13;;;;;;;6.23;5.40;;;23.90;49.90;;;;;;5002862;28;22621;-46
2021/09/05 03:16:39;;;;;;;7.27;6.50;;;24.00;49.80;;;;;;5005800;28;20442;-44
2021/09/05 03:19:04;;;;;;;6.37;5.77;;;23.90;49.90;;;;;;5003099;28;20194;-46
2021/09/05 03:21:30;;;;;;;6.27;5.67;;;23.90;49.90;;;;;;5007486;28;20256;-48
2021/09/05 03:23:56;;;;;;;8.67;6.10;;;23.90;49.70;;;;;;5009467;28;20614;-49
2021/09/05 03:26:21;;;;;;;7.00;6.40;;;23.90;49.80;;;;;;5006077;28;20190;-50
2021/09/05 03:28:47;;;;;;;6.80;5.87;;;23.90;49.80;;;;;;5005141;28;20480;-49
2021/09/05 03:31:13;;;;;;;7.10;5.93;;;23.90;49.90;;;;;;5005861;28;20251;-52
2021/09/05 03:33:38;;;;;;;8.87;6.47;;;23.90;49.70;;;;;;5001643;28;20252;-53
2021/09/05 03:36:04;;;;;;;10.63;7.37;;;23.90;48.60;;;;;;5004631;28;20197;-52
2021/09/05 03:38:30;;;;;;;7.77;7.03;;;23.70;48.60;;;;;;5009588;28;20198;-52
2021/09/05 03:40:56;;;;;;;7.23;5.60;;;23.40;48.90;;;;;;5008822;28;20960;-53
2021/09/05 03:43:22;;;;;;;7.77;6.90;;;23.10;49.50;;;;;;5002754;28;20544;-51
2021/09/05 03:45:47;;;;;;;7.90;7.20;;;22.90;50.20;;;;;;5005584;28;20661;-51
2021/09/05 03:48:13;;;;;;;7.50;6.80;;;22.60;50.70;;;;;;5000306;28;21901;-53
2021/09/05 03:50:39;;;;;;;10.43;7.00;;;22.40;51.30;;;;;;5004169;28;20201;-51
2021/09/05 03:53:04;;;;;;;7.83;7.13;;;22.00;52.40;;;;;;5002759;28;20190;-53
2021/09/05 03:55:30;;;;;;;7.23;6.53;;;21.70;53.00;;;;;;5008003;28;20691;-53
2021/09/05 03:57:56;;;;;;;8.00;7.20;;;21.60;53.00;;;;;;5005782;28;20229;-53
2021/09/05 04:00:21;;;;;;;8.00;6.93;;;21.50;53.70;;;;;;5008108;28;20194;-52
2021/09/05 04:02:47;;;;;;;8.80;7.13;;;21.40;53.50;;;;;;5010756;28;20205;-52
2021/09/05 04:05:13;;;;;;;8.20;6.73;;;21.40;53.40;;;;;;5008556;28;20269;-51
2021/09/05 04:07:42;;;;;;;7.77;7.07;;;21.40;53.30;;;;;;5009909;28;20225;-52
2021/09/05 04:10:11;;;;;;;7.40;6.70;;;21.30;53.30;;;;;;5011034;28;20591;-51
2021/09/05 04:12:41;;;;;;;9.27;7.60;;;21.30;53.50;;;;;;5009687;28;20933;-53
2021/09/05 04:15:08;;;;;;;8.77;7.70;;;21.20;53.60;;;;;;5000382;28;20460;-49
2021/09/05 04:17:34;;;;;;;8.03;7.23;;;21.00;53.80;;;;;;5003686;28;20455;-47
2021/09/05 04:20:00;;;;;;;8.73;7.70;;;20.90;54.10;;;;;;5008523;28;20436;-47
2021/09/05 04:22:26;;;;;;;8.93;7.10;;;20.80;54.40;;;;;;5012640;28;20194;-48
2021/09/05 04:24:51;;;;;;;7.30;6.57;;;20.80;54.70;;;;;;5009486;28;20277;-48
2021/09/05 04:27:17;;;;;;;8.33;7.17;;;20.70;54.90;;;;;;5006756;28;20544;-47
2021/09/05 04:29:43;;;;;;;7.00;6.40;;;20.60;54.80;;;;;;5011051;28;20616;-48
2021/09/05 04:32:08;;;;;;;8.27;7.43;;;20.60;54.90;;;;;;5007309;28;20198;-46
2021/09/05 04:34:35;;;;;;;7.37;6.67;;;20.50;55.20;;;;;;5009618;28;20301;-46
2021/09/05 04:37:00;;;;;;;9.93;6.93;;;20.50;55.40;;;;;;5010334;28;22022;-48
2021/09/05 04:39:26;;;;;;;8.07;6.80;;;20.50;55.40;;;;;;5003227;28;20490;-49
2021/09/05 04:41:51;;;;;;;8.93;6.47;;;20.50;55.30;;;;;;5007675;28;20209;-47
2021/09/05 04:44:17;;;;;;;8.23;7.43;;;20.50;55.70;;;;;;5005976;28;20259;-48
2021/09/05 04:46:43;;;;;;;8.23;7.53;;;20.50;55.70;;;;;;5004637;28;20190;-47
2021/09/05 04:49:10;;;;;;;8.07;7.33;;;20.40;56.10;;;;;;5010379;28;20288;-47
2021/09/05 04:51:35;;;;;;;7.47;6.77;;;20.50;55.90;;;;;;5003435;28;20194;-47
2021/09/05 04:54:01;;;;;;;10.50;6.93;;;20.40;55.90;;;;;;5011321;28;20516;-48
2021/09/05 04:56:26;;;;;;;11.40;6.73;;;20.50;55.70;;;;;;5008111;28;20201;-47
2021/09/05 04:58:52;;;;;;;9.60;8.53;;;20.40;55.80;;;;;;5008836;28;20244;-46
2021/09/05 05:01:17;;;;;;;7.60;6.90;;;20.30;56.00;;;;;;5006506;28;20693;-47
2021/09/05 05:03:43;;;;;;;7.60;6.80;;;20.20;56.50;;;;;;5011689;28;20260;-47
2021/09/05 05:06:09;;;;;;;7.70;6.90;;;20.20;56.70;;;;;;5005705;28;20557;-46
2021/09/05 05:08:35;;;;;;;8.60;7.70;;;20.20;56.70;;;;;;5004182;28;20316;-47
2021/09/05 05:11:01;;;;;;;8.73;7.83;;;20.20;56.90;;;;;;5006941;28;20448;-47
2021/09/05 05:13:27;;;;;;;8.37;7.27;;;20.10;57.00;;;;;;5007766;28;20285;-49
2021/09/05 05:15:55;;;;;;;10.33;7.13;;;20.20;56.90;;;;;;5004709;28;20889;-47
2021/09/05 05:18:21;;;;;;;9.70;7.40;;;20.10;56.70;;;;;;5005827;28;20441;-47
2021/09/05 05:20:47;;;;;;;7.80;7.00;;;20.20;57.00;;;;;;5004862;28;20860;-49
2021/09/05 05:23:12;;;;;;;7.90;6.97;;;20.30;57.90;;;;;;5007366;28;20441;-47
2021/09/05 05:25:38;;;;;;;8.70;7.27;;;20.40;57.20;;;;;;4999430;28;20277;-46
2021/09/05 05:28:04;;;;;;;10.67;6.80;;;20.70;56.60;;;;;;5008806;28;20574;-46
2021/09/05 05:30:29;;;;;;;8.00;7.20;;;20.80;56.30;;;;;;5008632;28;20209;-46
2021/09/05 05:32:58;;;;;;;8.13;7.33;;;21.00;55.70;;;;;;5003361;28;20291;-47
2021/09/05 05:35:23;;;;;;;8.23;7.47;;;21.10;55.40;;;;;;5010778;28;20281;-46
2021/09/05 05:37:49;;;;;;;8.90;7.50;;;21.20;55.50;;;;;;5009141;28;20521;-46
2021/09/05 05:40:15;;;;;;;7.30;6.20;;;21.40;55.00;;;;;;5010918;28;20197;-46
2021/09/05 05:42:40;;;;;;;8.40;7.60;;;21.40;54.80;;;;;;5009777;28;20194;-46
2021/09/05 05:45:06;;;;;;;7.10;6.40;;;21.50;54.40;;;;;;5007561;28;20201;-46
2021/09/05 05:47:32;;;;;;;8.60;7.53;;;21.50;54.30;;;;;;5004637;28;20226;-47
2021/09/05 05:49:57;;;;;;;7.50;6.70;;;21.60;54.30;;;;;;5011771;28;20437;-46
2021/09/05 05:52:23;;;;;;;9.23;6.60;;;21.60;54.40;;;;;;5011771;28;20189;-47
2021/09/05 05:54:49;;;;;;;8.37;7.53;;;21.60;54.20;;;;;;5004546;28;20201;-46
2021/09/05 05:57:14;;;;;;;8.37;6.17;;;21.60;54.20;;;;;;5004247;28;20247;-47
2021/09/05 05:59:40;;;;;;;7.00;6.30;;;21.30;54.80;;;;;;5011502;28;20232;-50
2021/09/05 06:02:05;;;;;;;7.50;6.67;;;21.20;55.20;;;;;;5010696;28;20560;-47
2021/09/05 06:04:31;;;;;;;7.40;6.67;;;21.40;55.10;;;;;;5003928;28;20201;-46
2021/09/05 06:06:58;;;;;;;6.63;6.13;;;21.50;55.00;;;;;;5008301;28;20277;-46
2021/09/05 06:09:24;;;;;;;8.80;7.90;;;21.70;54.70;;;;;;5000235;28;20230;-46
2021/09/05 06:11:49;;;;;;;6.63;6.13;;;21.60;54.80;;;;;;5011304;28;20448;-46
2021/09/05 06:14:15;;;;;;;7.90;6.80;;;21.40;55.10;;;;;;5005686;28;20952;-50
2021/09/05 06:16:40;;;;;;;7.50;6.80;;;21.10;55.40;;;;;;5012117;28;20198;-47
2021/09/05 06:19:06;;;;;;;7.67;6.43;;;21.10;55.80;;;;;;5011105;28;20646;-48
2021/09/05 06:21:32;;;;;;;8.00;7.40;;;21.40;55.70;;;;;;5009015;28;20202;-48
2021/09/05 06:23:57;;;;;;;6.80;6.10;;;21.60;55.20;;;;;;5007271;28;20198;-48
2021/09/05 06:26:23;;;;;;;7.50;6.70;;;21.80;54.80;;;;;;5010966;28;20186;-48
2021/09/05 06:28:49;;;;;;;7.53;6.83;;;22.00;54.20;;;;;;5009744;28;20217;-50
2021/09/05 06:31:14;;;;;;;6.90;6.20;;;22.20;53.90;;;;;;5006305;28;20248;-46
2021/09/05 06:33:40;;;;;;;7.07;6.37;;;22.40;53.50;;;;;;5004310;28;20194;-50
2021/09/05 06:36:05;;;;;;;8.03;7.23;;;22.40;53.10;;;;;;5009672;28;20198;-46
2021/09/05 06:38:31;;;;;;;9.17;6.17;;;22.00;53.60;;;;;;5005338;28;20198;-47
2021/09/05 06:40:57;;;;;;;6.80;6.20;;;22.00;54.70;;;;;;5009734;28;20221;-47
2021/09/05 06:43:22;;;;;;;8.73;7.40;;;21.80;55.30;;;;;;5009265;28;20423;-48
2021/09/05 06:45:48;;;;;;;11.60;7.10;;;22.00;54.70;;;;;;5008753;28;20440;-47
2021/09/05 06:48:13;;;;;;;7.40;6.80;;;22.00;54.60;;;;;;5008254;28;20316;-47
2021/09/05 06:50:39;;;;;;;8.40;7.57;;;22.20;54.60;;;;;;5008248;28;20649;-47
2021/09/05 06:53:04;;;;;;;8.10;7.40;;;22.20;55.00;;;;;;5005723;28;20533;-46
2021/09/05 06:55:30;;;;;;;7.77;7.17;;;21.90;55.10;;;;;;5010278;28;20205;-47
2021/09/05 06:57:56;;;;;;;8.03;7.00;;;21.20;56.90;;;;;;5009595;28;20257;-47
2021/09/05 07:00:21;;;;;;;7.83;7.03;;;20.80;58.90;;;;;;5010409;28;20677;-47
2021/09/05 07:02:47;;;;;;;8.20;7.40;;;21.00;58.70;;;;;;5008253;28;20198;-48
2021/09/05 07:05:13;;;;;;;8.13;7.00;;;21.20;57.90;;;;;;5009981;28;20898;-46
2021/09/05 07:07:38;;;;;;;7.60;6.90;;;21.30;58.00;;;;;;5005760;28;20213;-48
2021/09/05 07:10:05;;;;;;;6.80;6.20;;;21.40;57.70;;;;;;5010075;28;20925;-49
2021/09/05 07:12:30;;;;;;;7.53;6.80;;;21.60;57.80;;;;;;5007413;28;20206;-48
2021/09/05 07:14:56;;;;;;;8.53;7.30;;;21.50;57.60;;;;;;5009598;28;20547;-48
2021/09/05 07:17:22;;;;;;;9.47;7.23;;;21.50;57.60;;;;;;5008614;28;20225;-48
2021/09/05 07:19:47;;;;;;;8.77;6.70;;;21.10;58.90;;;;;;5009687;28;20198;-47
2021/09/05 07:22:13;;;;;;;9.10;7.43;;;21.30;58.70;;;;;;5003018;28;20233;-48
2021/09/05 07:24:38;;;;;;;8.40;7.60;;;21.80;58.10;;;;;;4999516;28;20298;-48
2021/09/05 07:27:04;;;;;;;8.97;8.10;;;22.10;57.30;;;;;;4995956;28;20199;-47
2021/09/05 07:29:30;;;;;;;7.80;6.70;;;22.30;56.80;;;;;;4996433;28;20261;-47
2021/09/05 07:31:55;;;;;;;8.37;7.33;;;22.50;55.80;;;;;;4999081;28;20194;-47
2021/09/05 07:34:21;;;;;;;7.87;7.17;;;22.70;55.70;;;;;;5014214;28;20556;-46
2021/09/05 07:36:46;;;;;;;8.17;7.47;;;22.90;55.10;;;;;;5015575;28;20198;-49
2021/09/05 07:39:12;;;;;;;8.13;6.70;;;23.00;54.80;;;;;;5014911;28;20194;-46
2021/09/05 07:41:38;;;;;;;7.83;6.83;;;23.10;54.50;;;;;;4998536;28;20566;-47
2021/09/05 07:44:04;;;;;;;8.03;7.30;;;23.20;54.50;;;;;;5008406;28;20197;-47
2021/09/05 07:46:30;;;;;;;8.53;7.73;;;23.20;54.20;;;;;;4998823;28;20277;-46
2021/09/05 07:48:55;;;;;;;6.97;6.33;;;23.20;54.40;;;;;;5007885;28;20563;-46
2021/09/05 07:51:24;;;;;;;7.83;7.13;;;23.40;54.50;;;;;;5001074;28;20194;-48
2021/09/05 07:53:54;;;;;;;11.00;7.03;;;23.50;54.50;;;;;;5013131;28;20198;-49
2021/09/05 07:56:20;;;;;;;7.37;6.73;;;23.50;54.30;;;;;;4997374;28;20529;-48
2021/09/05 07:58:46;;;;;;;8.07;7.27;;;23.70;54.30;;;;;;4994432;28;20648;-46
2021/09/05 08:01:13;;;;;;;7.50;6.80;;;23.70;53.90;;;;;;5013359;28;20460;-46
2021/09/05 08:03:39;;;;;;;8.83;7.50;;;23.80;53.60;;;;;;5012769;28;20924;-47
2021/09/05 08:06:06;;;;;;;7.23;6.40;;;23.90;53.50;;;;;;5009744;28;20495;-46
2021/09/05 08:08:33;;;;;;;9.20;7.37;;;24.00;53.60;;;;;;5013125;28;20488;-48
2021/09/05 08:10:59;;;;;;;7.60;6.90;;;23.80;53.90;;;;;;5006209;28;20488;-48
2021/09/05 08:13:24;;;;;;;7.67;6.47;;;23.90;54.00;;;;;;4993901;28;20823;-48
2021/09/05 08:15:50;;;;;;;6.93;6.33;;;24.10;54.10;;;;;;5004217;28;20433;-46
2021/09/05 08:18:16;;;;;;;7.17;6.47;;;24.20;54.30;;;;;;4993450;28;20202;-46
2021/09/05 08:20:41;;;;;;;9.77;7.03;;;24.40;53.90;;;;;;5004899;28;20277;-46
2021/09/05 08:23:07;;;;;;;6.50;5.90;;;24.60;53.40;;;;;;4999283;28;20182;-48
2021/09/05 08:25:32;;;;;;;8.50;6.70;;;24.70;53.00;;;;;;5009088;28;20198;-46
2021/09/05 08:27:58;;;;;;;7.33;6.40;;;24.80;52.50;;;;;;5011874;28;20229;-48
2021/09/05 08:30:24;;;;;;;6.47;5.97;;;24.90;52.20;;;;;;5007763;28;20625;-48
2021/09/05 08:32:49;;;;;;;7.37;6.47;;;25.00;52.10;;;;;;4993195;28;20194;-46
2021/09/05 08:35:15;;;;;;;7.30;6.70;;;25.00;52.20;;;;;;5010496;28;20283;-46
2021/09/05 08:37:41;;;;;;;6.40;5.90;;;25.20;51.90;;;;;;5010994;28;20213;-47
2021/09/05 08:40:07;;;;;;;6.70;6.10;;;25.40;51.40;;;;;;5007645;28;20205;-48
2021/09/05 08:42:34;;;;;;;8.47;6.83;;;25.60;51.30;;;;;;4993190;28;20207;-47
2021/09/05 08:45:01;;;;;;;6.70;6.00;;;25.70;50.80;;;;;;5011632;28;20452;-47
2021/09/05 08:47:34;;;;;;;6.90;6.30;;;25.70;51.00;;;;;;5012813;28;20433;-47
2021/09/05 08:50:02;;;;;;;7.27;6.10;;;25.80;51.00;;;;;;5006440;28;20449;-46
2021/09/05 08:52:28;;;;;;;5.80;5.30;;;25.80;49.80;;;;;;4993175;28;20422;-47
2021/09/05 08:54:54;;;;;;;6.63;6.03;;;26.00;49.80;;;;;;5009454;28;20441;-48
2021/09/05 08:57:19;;;;;;;5.67;5.17;;;26.10;50.10;;;;;;4999039;28;20190;-47
2021/09/05 08:59:45;;;;;;;6.43;5.63;;;26.30;49.20;;;;;;4971603;28;1092488;-47
2021/09/05 09:02:10;;;;;;;7.07;6.20;;;26.40;48.40;;;;;;5013232;28;20190;-49
2021/09/05 09:04:38;;;;;;;6.33;5.73;;;26.50;48.30;;;;;;5005133;28;20646;-47
2021/09/05 09:07:15;;;;;;;6.03;5.43;;;26.40;48.70;;;;;;5006937;28;20210;-47
2021/09/05 09:09:56;;;;;;;5.40;4.90;;;26.70;47.90;;;;;;4994266;28;20452;-46
2021/09/05 09:12:44;;;;;;;5.70;5.20;;;26.90;47.30;;;;;;4998914;28;21118;-47
2021/09/05 09:15:26;;;;;;;7.20;5.67;;;27.10;47.20;;;;;;4999869;28;20429;-47
2021/09/05 09:18:03;;;;;;;6.63;6.03;;;27.40;46.30;;;;;;5001681;28;20452;-52
2021/09/05 09:20:31;;;;;;;6.43;5.60;;;27.60;45.80;;;;;;5012889;28;20433;-46
2021/09/05 09:23:17;;;;;;;5.37;4.80;;;27.70;45.80;;;;;;5011247;28;20447;-49
2021/09/05 09:25:54;;;;;;;6.40;5.70;;;27.70;45.60;;;;;;5009121;28;20444;-48
2021/09/05 09:28:28;;;;;;;6.27;5.77;;;27.90;45.70;;;;;;5008429;28;20630;-47
2021/09/05 09:30:58;;;;;;;5.90;5.40;;;28.10;45.60;;;;;;5010147;28;20580;-49
2021/09/05 09:33:25;;;;;;;5.77;5.37;;;28.20;45.80;;;;;;5003805;28;20441;-47
2021/09/05 09:35:57;;;;;;;6.00;5.50;;;28.30;45.00;;;;;;5011070;28;20520;-47
2021/09/05 09:38:23;;;;;;;6.27;5.67;;;28.50;45.60;;;;;;5010837;28;20429;-49
2021/09/05 09:40:50;;;;;;;5.80;5.30;;;28.50;44.70;;;;;;5011142;28;20457;-47
2021/09/05 09:43:21;;;;;;;5.80;5.30;;;28.70;44.00;;;;;;5002890;28;20437;-47
2021/09/05 09:45:48;;;;;;;6.40;5.20;;;28.80;43.70;;;;;;5005156;28;20456;-52
2021/09/05 09:48:26;;;;;;;5.47;5.03;;;29.00;43.80;;;;;;5009550;28;20587;-47
2021/09/05 09:51:00;;;;;;;5.80;5.40;;;29.20;43.90;;;;;;5010124;28;20469;-49
2021/09/05 09:53:27;;;;;;;5.43;5.03;;;29.40;43.80;;;;;;5010637;28;20460;-48
2021/09/05 09:55:53;;;;;;;4.50;4.10;;;29.30;43.10;;;;;;5012623;28;20491;-47
2021/09/05 09:58:19;;;;;;;7.80;5.53;;;29.50;42.60;;;;;;5011945;28;20991;-48
2021/09/05 10:00:44;;;;;;;6.07;5.57;;;29.70;41.90;;;;;;5009539;28;20464;-48
2021/09/05 10:03:11;;;;;;;5.20;4.70;;;29.80;42.40;;;;;;5001289;28;20194;-47
2021/09/05 10:05:39;;;;;;;5.30;4.80;;;29.80;41.20;;;;;;5000497;28;20841;-49
2021/09/05 10:08:07;;;;;;;6.30;5.70;;;30.10;40.90;;;;;;5011708;28;20509;-47
2021/09/05 10:10:33;;;;;;;6.73;6.13;;;30.40;40.10;;;;;;5012790;28;20441;-47
2021/09/05 10:13:00;;;;;;;5.67;5.17;;;30.50;39.50;;;;;;5004906;28;20436;-49
2021/09/05 10:15:26;;;;;;;5.20;4.70;;;30.60;40.20;;;;;;5010403;28;20797;-49
2021/09/05 10:17:52;;;;;;;4.90;4.40;;;30.70;40.50;;;;;;5002711;28;20425;-47
2021/09/05 10:20:18;;;;;;;5.20;4.70;;;30.50;37.70;;;;;;5007247;28;20194;-48
2021/09/05 10:22:44;;;;;;;5.20;4.73;;;30.60;37.40;;;;;;5010760;28;20939;-52
2021/09/05 10:25:10;;;;;;;4.80;4.40;;;30.60;36.60;;;;;;5008853;28;20433;-48
2021/09/05 10:27:39;;;;;;;7.27;4.80;;;30.80;36.70;;;;;;5008985;28;20447;-47
2021/09/05 10:30:07;;;;;;;5.43;4.93;;;31.00;38.00;;;;;;5009980;28;20650;-48
2021/09/05 10:32:42;;;;;;;4.77;4.27;;;31.20;38.30;;;;;;5010066;28;20453;-47
2021/09/05 10:35:38;;;;;;;4.83;4.43;;;31.30;36.00;;;;;;5006833;28;20453;-51
2021/09/05 10:38:09;;;;;;;7.70;4.70;;;31.30;34.50;;;;;;5008994;28;20479;-48
2021/09/05 10:40:40;;;;;;;6.47;4.93;;;31.40;35.30;;;;;;5011865;28;20437;-48
2021/09/05 10:43:06;;;;;;;4.97;4.53;;;31.50;35.40;;;;;;5000163;28;20421;-48
2021/09/05 10:45:33;;;;;;;7.60;5.30;;;31.50;35.60;;;;;;5010876;28;20544;-48
2021/09/05 10:47:59;;;;;;;4.43;4.03;;;31.60;34.50;;;;;;5009516;28;20254;-46
2021/09/05 10:50:50;;;;;;;6.03;5.43;;;31.70;35.00;;;;;;5010381;28;20448;-47
2021/09/05 10:53:22;;;;;;;5.27;4.80;;;32.00;34.60;;;;;;5006708;28;20576;-48
2021/09/05 10:56:36;;;;;;;5.30;4.80;;;31.60;34.00;;;;;;5004318;28;20445;-49
2021/09/05 10:59:12;;;;;;;5.73;4.50;;;31.80;34.90;;;;;;4987840;28;20492;-49
2021/09/05 11:01:41;;;;;;;4.80;4.50;;;31.90;35.30;;;;;;5000362;28;20433;-46
2021/09/05 11:04:10;;;;;;;5.50;4.80;;;32.10;34.90;;;;;;5008122;28;21014;-49
2021/09/05 11:06:53;;;;;;;5.10;4.70;;;32.50;35.50;;;;;;5004940;28;20453;-47
2021/09/05 11:09:19;;;;;;;4.87;4.40;;;32.80;34.10;;;;;;5003536;28;20496;-50
2021/09/05 11:11:56;;;;;;;5.83;4.33;;;32.90;32.90;;;;;;5010728;28;20441;-49
2021/09/05 11:14:49;;;;;;;4.87;4.47;;;33.20;34.60;;;;;;5010071;28;20696;-51
2021/09/05 11:17:19;;;;;;;5.50;5.00;;;33.10;32.40;;;;;;5005267;28;20457;-47
2021/09/05 11:19:52;;;;;;;4.87;4.47;;;33.20;32.90;;;;;;5010682;28;20882;-47
2021/09/05 11:22:35;;;;;;;4.50;4.20;;;33.50;32.20;;;;;;5005428;28;20469;-47
2021/09/05 11:25:06;;;;;;;5.47;4.90;;;33.70;32.50;;;;;;4991794;28;20466;-47
2021/09/05 11:27:32;;;;;;;4.83;4.33;;;33.80;31.20;;;;;;5009555;28;21248;-47
2021/09/05 11:30:03;;;;;;;5.57;5.10;;;33.80;30.30;;;;;;5007354;28;20437;-47
2021/09/05 11:32:29;;;;;;;5.60;4.40;;;33.80;30.30;;;;;;5010763;28;20197;-47
2021/09/05 11:34:56;;;;;;;5.10;4.40;;;33.90;30.00;;;;;;5008379;28;20437;-47
2021/09/05 11:37:29;;;;;;;4.70;4.40;;;33.90;30.40;;;;;;5010789;28;20638;-48
2021/09/05 11:39:56;;;;;;;4.60;4.20;;;33.20;29.00;;;;;;4997416;28;20442;-47
2021/09/05 11:42:22;;;;;;;5.00;4.60;;;33.00;29.40;;;;;;5007139;28;20443;-50
2021/09/05 11:44:48;;;;;;;4.67;4.27;;;33.30;30.10;;;;;;5005139;28;20552;-47
2021/09/05 11:47:19;;;;;;;4.37;4.03;;;33.70;31.50;;;;;;5000671;28;20505;-49
2021/09/05 11:49:51;;;;;;;4.47;4.17;;;34.10;30.40;;;;;;4994821;28;20230;-50
2021/09/05 11:52:29;;;;;;;5.20;4.80;;;34.30;28.80;;;;;;5009258;28;20441;-49
2021/09/05 11:54:59;;;;;;;4.90;4.43;;;34.20;28.90;;;;;;5007388;28;20499;-47
2021/09/05 11:57:25;;;;;;;5.23;4.83;;;33.00;29.60;;;;;;4997874;28;20446;-48
2021/09/05 11:59:55;;;;;;;5.80;5.30;;;33.20;31.10;;;;;;5006257;28;20798;-47
2021/09/05 12:02:29;;;;;;;5.20;4.70;;;33.70;29.90;;;;;;5008816;28;20198;-48
2021/09/05 12:04:55;;;;;;;4.63;4.23;;;34.10;30.10;;;;;;5002726;28;20429;-48
2021/09/05 12:07:20;;;;;;;5.40;4.20;;;34.40;29.70;;;;;;5008530;28;20499;-47
2021/09/05 12:09:46;;;;;;;4.80;4.50;;;34.60;29.10;;;;;;5009715;28;20858;-48
2021/09/05 12:12:12;;;;;;;5.00;4.00;;;34.60;29.30;;;;;;5009499;28;20193;-49
2021/09/05 12:14:39;;;;;;;6.00;4.67;;;34.40;28.80;;;;;;5009863;28;20553;-46
2021/09/05 12:17:21;;;;;;;4.60;4.17;;;34.30;28.40;;;;;;5010951;28;20190;-47
2021/09/05 12:19:58;;;;;;;5.20;4.50;;;34.40;28.20;;;;;;5012405;28;20862;-47
2021/09/05 12:22:25;;;;;;;4.70;4.30;;;34.40;28.10;;;;;;5008142;28;20449;-47
2021/09/05 12:24:57;;;;;;;4.87;4.37;;;34.50;28.10;;;;;;5012495;28;20456;-46
2021/09/05 12:27:23;;;;;;;4.43;4.07;;;34.70;29.00;;;;;;5006322;28;20476;-48
2021/09/05 12:29:49;;;;;;;4.97;4.57;;;34.20;27.70;;;;;;4994994;28;20457;-47
2021/09/05 12:32:15;;;;;;;4.93;4.50;;;33.50;28.50;;;;;;4994401;28;20566;-46
2021/09/05 12:34:45;;;;;;;4.60;4.20;;;33.90;28.30;;;;;;4994625;28;20642;-51
2021/09/05 12:37:21;;;;;;;4.20;3.90;;;33.90;27.10;;;;;;5003615;28;20519;-49
2021/09/05 12:39:48;;;;;;;4.30;3.90;;;34.20;27.50;;;;;;5001535;28;20515;-48
2021/09/05 12:42:16;;;;;;;4.80;4.50;;;34.40;27.10;;;;;;5013817;28;20436;-46
2021/09/05 12:44:50;;;;;;;4.90;4.50;;;34.60;27.10;;;;;;5011668;28;20801;-52
2021/09/05 12:47:29;;;;;;;4.83;4.43;;;34.80;26.10;;;;;;5010229;28;20479;-47